createdAt,value
2023-03-19T00:00:15.348Z,18.10
2023-03-19T00:07:16.967Z,17.85
2023-03-19T00:14:18.553Z,15.27
2023-03-19T00:21:20.597Z,21.25
2023-03-19T00:28:22.153Z,17.02
2023-03-19T00:35:24.289Z,20.23
2023-03-19T00:42:26.073Z,44.63
2023-03-19T00:49:27.640Z,50.17
2023-03-19T00:56:29.289Z,40.95
2023-03-19T01:03:30.839Z,50.05
2023-03-19T01:10:33.013Z,48.88
2023-03-19T01:17:34.561Z,63.42
2023-03-19T01:24:36.118Z,78.05
2023-03-19T01:31:37.691Z,89.15
2023-03-19T01:38:57.908Z,86.75
2023-03-19T01:46:35.638Z,126.07
2023-03-19T01:54:00.125Z,129.80
2023-03-19T02:01:27.907Z,181.20
2023-03-19T02:08:29.581Z,52.78
2023-03-19T02:15:31.380Z,58.25
2023-03-19T02:22:32.982Z,83.32
2023-03-19T02:29:35.098Z,36.95
2023-03-19T02:36:39.080Z,30.40
2023-03-19T02:43:41.250Z,22.40
2023-03-19T02:50:42.826Z,22.35
2023-03-19T02:57:45.476Z,18.40
2023-03-19T03:04:47.470Z,15.90
2023-03-19T03:11:49.286Z,16.50
2023-03-19T03:18:51.238Z,18.13
2023-03-19T03:25:54.158Z,18.85
2023-03-19T03:32:55.840Z,21.38
2023-03-19T03:39:58.044Z,35.40
2023-03-19T03:46:59.906Z,45.88
2023-03-19T03:54:01.700Z,69.30
2023-03-19T04:01:03.808Z,23.58
2023-03-19T04:08:07.042Z,16.00
2023-03-19T04:15:09.548Z,15.32
2023-03-19T04:22:12.771Z,15.05
2023-03-19T04:29:14.336Z,15.48
2023-03-19T04:36:17.931Z,16.48
2023-03-19T04:43:19.762Z,19.65
2023-03-19T04:50:22.045Z,14.68
2023-03-19T04:57:23.686Z,15.23
2023-03-19T05:04:28.157Z,15.35
2023-03-19T05:11:35.863Z,17.60
2023-03-19T05:18:41.399Z,20.20
2023-03-19T05:25:43.132Z,17.00
2023-03-19T05:32:48.278Z,14.98
2023-03-19T05:40:00.179Z,19.30
2023-03-19T05:47:02.380Z,16.75
2023-03-19T05:54:07.916Z,14.45
2023-03-19T06:01:12.003Z,14.23
2023-03-19T06:08:13.957Z,13.35
2023-03-19T06:15:30.516Z,16.05
2023-03-19T06:29:53.474Z,14.13
2023-03-19T06:37:05.458Z,15.15
2023-03-19T06:44:07.342Z,19.75
2023-03-19T06:51:08.891Z,15.77
2023-03-19T06:58:10.642Z,16.27
2023-03-19T07:05:12.189Z,18.60
2023-03-19T07:12:13.705Z,20.02
2023-03-19T07:19:15.295Z,15.48
2023-03-19T07:26:17.547Z,19.23
2023-03-19T07:33:20.143Z,17.55
2023-03-19T07:40:21.711Z,16.85
2023-03-19T07:47:28.873Z,16.58
2023-03-19T07:54:31.220Z,20.10
2023-03-19T08:01:32.731Z,14.57
2023-03-19T08:08:34.952Z,19.58
2023-03-19T08:15:37.082Z,15.80
2023-03-19T08:22:38.778Z,19.23
2023-03-19T08:29:40.488Z,17.70
2023-03-19T08:36:42.011Z,16.63
2023-03-19T08:43:43.573Z,15.77
2023-03-19T08:50:45.320Z,16.33
2023-03-19T08:57:46.913Z,14.52
2023-03-19T09:04:48.532Z,15.75
2023-03-19T09:11:50.244Z,14.07
2023-03-19T09:18:51.853Z,14.80
2023-03-19T09:25:53.425Z,16.45
2023-03-19T09:32:55.011Z,15.65
2023-03-19T09:39:56.571Z,13.50
2023-03-19T09:47:23.764Z,15.18
2023-03-19T09:54:28.425Z,14.60
2023-03-19T10:01:35.326Z,16.88
2023-03-19T10:08:42.783Z,14.43
2023-03-19T10:15:44.643Z,14.40
2023-03-19T10:22:49.068Z,18.52
2023-03-19T10:29:51.127Z,17.80
2023-03-19T10:36:58.937Z,13.63
2023-03-19T10:44:03.150Z,16.10
2023-03-19T10:51:05.143Z,14.57
2023-03-19T10:58:20.266Z,12.93
2023-03-19T11:05:21.848Z,15.07
2023-03-19T11:12:37.482Z,13.27
2023-03-19T11:19:42.864Z,18.55
2023-03-19T11:26:48.751Z,13.82
2023-03-19T11:34:09.794Z,12.55
2023-03-19T11:41:30.431Z,11.65
2023-03-19T11:48:57.713Z,12.57
2023-03-19T11:56:08.950Z,10.93
2023-03-19T12:03:46.977Z,12.98
2023-03-19T12:11:02.269Z,14.07
2023-03-19T12:18:19.175Z,12.45
2023-03-19T12:25:42.909Z,12.13
2023-03-19T12:33:03.372Z,14.55
2023-03-19T12:40:28.320Z,13.20
2023-03-19T12:47:32.881Z,13.68
2023-03-19T12:54:40.093Z,11.70
2023-03-19T13:01:46.753Z,12.75
2023-03-19T13:09:05.614Z,12.38
2023-03-19T13:16:18.751Z,12.45
2023-03-19T13:23:32.452Z,13.25
2023-03-19T13:30:34.296Z,13.35
2023-03-19T13:37:36.124Z,12.68
2023-03-19T13:45:16.695Z,14.13
2023-03-19T13:52:18.228Z,14.18
2023-03-19T13:59:36.349Z,12.00
2023-03-19T14:06:42.545Z,12.10
2023-03-19T14:13:47.694Z,10.07
2023-03-19T14:21:01.516Z,12.10
2023-03-19T14:28:03.514Z,14.05
2023-03-19T14:35:05.745Z,15.07
2023-03-19T14:42:11.925Z,9.88
2023-03-19T14:49:38.298Z,10.43
2023-03-19T14:56:40.276Z,9.30
2023-03-19T15:03:42.460Z,10.95
2023-03-19T15:11:11.398Z,11.20
2023-03-19T15:18:13.135Z,11.17
2023-03-19T15:25:14.919Z,11.65
2023-03-19T15:32:49.718Z,9.43
2023-03-19T15:39:55.453Z,10.40
2023-03-19T15:46:57.042Z,12.75
2023-03-19T15:53:59.491Z,10.98
2023-03-19T16:01:01.164Z,17.33
2023-03-19T16:08:30.416Z,12.10
2023-03-19T16:15:42.602Z,10.67
2023-03-19T16:22:51.859Z,12.32
2023-03-19T16:29:57.393Z,12.00
2023-03-19T16:36:58.960Z,10.93
2023-03-19T16:44:16.071Z,16.15
2023-03-19T16:51:18.537Z,12.50
2023-03-19T16:58:31.614Z,14.52
2023-03-19T17:05:33.483Z,19.05
2023-03-19T17:12:35.105Z,16.73
2023-03-19T17:19:36.827Z,15.60
2023-03-19T17:26:38.426Z,16.23
2023-03-19T17:33:40.047Z,16.20
2023-03-19T17:40:41.816Z,16.67
2023-03-19T17:47:46.197Z,16.35
2023-03-19T17:54:47.884Z,17.83
2023-03-19T18:01:49.626Z,17.33
2023-03-19T18:08:51.349Z,15.80
2023-03-19T18:15:52.945Z,19.55
2023-03-19T18:22:54.736Z,19.95
2023-03-19T18:29:56.305Z,16.40
2023-03-19T18:36:59.050Z,19.13
2023-03-19T18:44:00.616Z,18.70
2023-03-19T18:51:02.196Z,19.73
2023-03-19T18:58:03.755Z,18.25
2023-03-19T19:05:05.654Z,19.10
2023-03-19T19:12:09.452Z,19.17
2023-03-19T19:19:16.395Z,18.10
2023-03-19T19:26:23.997Z,16.35
2023-03-19T19:33:28.223Z,15.70
2023-03-19T19:40:31.137Z,14.07
2023-03-19T19:47:34.663Z,16.13
2023-03-19T19:54:36.223Z,12.57
2023-03-19T20:01:37.922Z,13.75
2023-03-19T20:08:40.137Z,13.23
2023-03-19T20:15:41.743Z,12.10
2023-03-19T20:22:43.794Z,12.50
2023-03-19T20:29:45.569Z,11.93
2023-03-19T20:36:47.727Z,16.67
2023-03-19T20:43:50.360Z,15.07
2023-03-19T20:50:52.328Z,14.65
2023-03-19T20:57:54.469Z,11.23
2023-03-19T21:04:56.789Z,13.20
2023-03-19T21:11:58.484Z,13.32
2023-03-19T21:19:00.500Z,11.10
2023-03-19T21:26:23.072Z,10.18
2023-03-19T21:33:27.025Z,13.23
2023-03-19T21:40:29.865Z,16.10
2023-03-19T21:47:31.491Z,11.27
2023-03-19T21:54:33.201Z,11.57
2023-03-19T22:01:34.749Z,11.25
2023-03-19T22:08:36.635Z,11.57
2023-03-19T22:15:38.448Z,13.82
2023-03-19T22:22:40.016Z,12.25
2023-03-19T22:29:41.591Z,10.55
2023-03-19T22:36:43.293Z,11.65
2023-03-19T22:43:45.027Z,10.02
2023-03-19T22:50:46.618Z,10.77
2023-03-19T22:57:48.624Z,10.77
2023-03-19T23:04:50.332Z,10.80
2023-03-19T23:11:52.588Z,12.88
2023-03-19T23:25:55.932Z,10.32
2023-03-19T23:32:59.833Z,8.65
2023-03-19T23:40:01.679Z,10.35
2023-03-19T23:47:03.666Z,7.30
2023-03-19T23:54:22.314Z,7.50
